sensor_id;sensor_type;location;lat;lon;timestamp;pressure;altitude;pressure_sealevel;temperature;humidity
70900;BME280;67902;52.154;5.430;2023-04-30T00:02:07;102488.00;;;7.75;83.67
70900;BME280;67902;52.154;5.430;2023-04-30T00:04:34;102479.09;;;7.74;84.21
70900;BME280;67902;52.154;5.430;2023-04-30T00:07:00;102480.34;;;7.64;83.27
70900;BME280;67902;52.154;5.430;2023-04-30T00:09:27;102475.63;;;7.51;82.66
70900;BME280;67902;52.154;5.430;2023-04-30T00:11:53;102483.38;;;7.31;81.97
70900;BME280;67902;52.154;5.430;2023-04-30T00:14:20;102482.84;;;7.13;82.63
70900;BME280;67902;52.154;5.430;2023-04-30T00:16:46;102481.44;;;7.03;83.29
70900;BME280;67902;52.154;5.430;2023-04-30T00:19:12;102486.34;;;6.99;83.87
70900;BME280;67902;52.154;5.430;2023-04-30T00:21:39;102482.16;;;6.96;84.25
70900;BME280;67902;52.154;5.430;2023-04-30T00:24:06;102490.16;;;7.05;85.23
70900;BME280;67902;52.154;5.430;2023-04-30T00:26:32;102482.03;;;7.13;85.92
70900;BME280;67902;52.154;5.430;2023-04-30T00:28:59;102477.94;;;7.17;84.98
70900;BME280;67902;52.154;5.430;2023-04-30T00:31:25;102488.72;;;7.17;85.30
70900;BME280;67902;52.154;5.430;2023-04-30T00:33:51;102487.44;;;7.13;85.34
70900;BME280;67902;52.154;5.430;2023-04-30T00:36:18;102485.75;;;7.12;85.78
70900;BME280;67902;52.154;5.430;2023-04-30T00:38:44;102480.34;;;7.12;86.02
70900;BME280;67902;52.154;5.430;2023-04-30T00:41:11;102483.06;;;7.12;86.55
70900;BME280;67902;52.154;5.430;2023-04-30T00:43:38;102488.25;;;7.13;85.76
70900;BME280;67902;52.154;5.430;2023-04-30T00:46:04;102488.63;;;7.10;85.71
70900;BME280;67902;52.154;5.430;2023-04-30T00:48:32;102495.53;;;7.05;85.36
70900;BME280;67902;52.154;5.430;2023-04-30T00:50:58;102500.84;;;6.98;84.98
70900;BME280;67902;52.154;5.430;2023-04-30T00:53:25;102499.84;;;6.91;85.45
70900;BME280;67902;52.154;5.430;2023-04-30T00:55:51;102502.75;;;6.89;85.73
70900;BME280;67902;52.154;5.430;2023-04-30T00:58:19;102494.47;;;6.91;85.17
70900;BME280;67902;52.154;5.430;2023-04-30T01:00:45;102501.06;;;6.88;85.66
70900;BME280;67902;52.154;5.430;2023-04-30T01:03:13;102504.78;;;6.87;85.65
70900;BME280;67902;52.154;5.430;2023-04-30T01:05:39;102499.06;;;6.90;85.82
70900;BME280;67902;52.154;5.430;2023-04-30T01:08:06;102498.38;;;6.88;85.39
70900;BME280;67902;52.154;5.430;2023-04-30T01:10:40;102503.81;;;6.80;85.09
70900;BME280;67902;52.154;5.430;2023-04-30T01:13:28;102506.84;;;6.77;85.07
70900;BME280;67902;52.154;5.430;2023-04-30T01:18:47;102509.44;;;6.71;85.63
70900;BME280;67902;52.154;5.430;2023-04-30T01:21:16;102513.66;;;6.65;85.70
70900;BME280;67902;52.154;5.430;2023-04-30T01:29:43;102514.06;;;6.54;86.13
70900;BME280;67902;52.154;5.430;2023-04-30T01:32:09;102511.75;;;6.51;85.23
70900;BME280;67902;52.154;5.430;2023-04-30T01:34:36;102506.03;;;6.46;85.74
70900;BME280;67902;52.154;5.430;2023-04-30T01:37:17;102518.47;;;6.47;86.21
70900;BME280;67902;52.154;5.430;2023-04-30T01:40:07;102513.09;;;6.47;85.72
70900;BME280;67902;52.154;5.430;2023-04-30T01:45:56;102507.91;;;6.46;86.00
70900;BME280;67902;52.154;5.430;2023-04-30T01:53:40;102515.25;;;6.52;86.69
70900;BME280;67902;52.154;5.430;2023-04-30T01:56:36;102513.50;;;6.67;87.19
70900;BME280;67902;52.154;5.430;2023-04-30T01:59:07;102523.19;;;6.76;87.17
70900;BME280;67902;52.154;5.430;2023-04-30T02:01:34;102514.53;;;6.88;86.96
70900;BME280;67902;52.154;5.430;2023-04-30T02:04:01;102523.56;;;6.95;87.27
70900;BME280;67902;52.154;5.430;2023-04-30T02:06:28;102521.81;;;7.03;87.08
70900;BME280;67902;52.154;5.430;2023-04-30T02:08:56;102522.09;;;6.93;86.62
70900;BME280;67902;52.154;5.430;2023-04-30T02:11:28;102521.09;;;6.86;86.60
70900;BME280;67902;52.154;5.430;2023-04-30T02:13:55;102521.47;;;6.83;86.63
70900;BME280;67902;52.154;5.430;2023-04-30T02:16:22;102522.50;;;6.82;87.16
70900;BME280;67902;52.154;5.430;2023-04-30T02:18:48;102519.97;;;6.80;87.76
70900;BME280;67902;52.154;5.430;2023-04-30T02:21:15;102520.31;;;6.77;87.02
70900;BME280;67902;52.154;5.430;2023-04-30T02:23:41;102516.31;;;6.73;87.71
70900;BME280;67902;52.154;5.430;2023-04-30T02:26:07;102513.78;;;6.72;87.99
70900;BME280;67902;52.154;5.430;2023-04-30T02:28:34;102515.63;;;6.71;87.57
70900;BME280;67902;52.154;5.430;2023-04-30T02:31:01;102511.19;;;6.56;86.67
70900;BME280;67902;52.154;5.430;2023-04-30T02:33:27;102514.44;;;6.51;87.30
70900;BME280;67902;52.154;5.430;2023-04-30T02:35:53;102504.38;;;6.45;87.22
70900;BME280;67902;52.154;5.430;2023-04-30T02:38:20;102513.78;;;6.41;87.68
70900;BME280;67902;52.154;5.430;2023-04-30T02:40:46;102504.88;;;6.40;87.54
70900;BME280;67902;52.154;5.430;2023-04-30T02:43:13;102510.44;;;6.39;87.39
70900;BME280;67902;52.154;5.430;2023-04-30T02:45:39;102510.44;;;6.39;87.29
70900;BME280;67902;52.154;5.430;2023-04-30T02:48:06;102508.75;;;6.38;87.78
70900;BME280;67902;52.154;5.430;2023-04-30T02:50:33;102503.06;;;6.33;87.62
70900;BME280;67902;52.154;5.430;2023-04-30T02:52:59;102513.88;;;6.25;86.99
70900;BME280;67902;52.154;5.430;2023-04-30T02:55:26;102512.53;;;6.21;87.40
70900;BME280;67902;52.154;5.430;2023-04-30T02:57:52;102512.56;;;6.13;87.33
70900;BME280;67902;52.154;5.430;2023-04-30T03:00:19;102500.84;;;6.06;87.35
70900;BME280;67902;52.154;5.430;2023-04-30T03:02:45;102506.25;;;5.98;86.90
70900;BME280;67902;52.154;5.430;2023-04-30T03:05:13;102498.19;;;5.90;86.92
70900;BME280;67902;52.154;5.430;2023-04-30T03:07:40;102500.72;;;5.91;87.72
70900;BME280;67902;52.154;5.430;2023-04-30T03:10:07;102497.84;;;5.93;87.33
70900;BME280;67902;52.154;5.430;2023-04-30T03:12:34;102498.53;;;5.95;87.74
70900;BME280;67902;52.154;5.430;2023-04-30T03:15:00;102502.41;;;5.92;87.73
70900;BME280;67902;52.154;5.430;2023-04-30T03:17:26;102509.13;;;5.88;88.19
70900;BME280;67902;52.154;5.430;2023-04-30T03:19:53;102505.59;;;5.88;88.37
70900;BME280;67902;52.154;5.430;2023-04-30T03:22:20;102511.00;;;5.71;86.80
70900;BME280;67902;52.154;5.430;2023-04-30T03:24:48;102508.69;;;5.44;87.54
70900;BME280;67902;52.154;5.430;2023-04-30T03:27:15;102502.47;;;5.36;87.82
70900;BME280;67902;52.154;5.430;2023-04-30T03:29:42;102505.00;;;5.29;87.85
70900;BME280;67902;52.154;5.430;2023-04-30T03:32:08;102499.97;;;5.26;88.03
70900;BME280;67902;52.154;5.430;2023-04-30T03:34:34;102497.28;;;5.26;88.85
70900;BME280;67902;52.154;5.430;2023-04-30T03:37:01;102497.94;;;5.28;88.82
70900;BME280;67902;52.154;5.430;2023-04-30T03:39:29;102495.94;;;5.30;88.35
70900;BME280;67902;52.154;5.430;2023-04-30T03:41:55;102505.16;;;5.36;88.25
70900;BME280;67902;52.154;5.430;2023-04-30T03:44:22;102497.44;;;5.41;88.42
70900;BME280;67902;52.154;5.430;2023-04-30T03:46:48;102500.28;;;5.47;88.36
70900;BME280;67902;52.154;5.430;2023-04-30T03:49:14;102493.88;;;5.48;88.64
70900;BME280;67902;52.154;5.430;2023-04-30T03:51:41;102496.25;;;5.43;88.25
70900;BME280;67902;52.154;5.430;2023-04-30T03:54:08;102487.38;;;5.26;87.19
70900;BME280;67902;52.154;5.430;2023-04-30T03:56:35;102494.78;;;5.16;87.69
70900;BME280;67902;52.154;5.430;2023-04-30T03:59:02;102490.91;;;5.19;87.82
70900;BME280;67902;52.154;5.430;2023-04-30T04:01:29;102495.94;;;5.22;88.12
70900;BME280;67902;52.154;5.430;2023-04-30T04:03:56;102493.75;;;5.25;88.13
70900;BME280;67902;52.154;5.430;2023-04-30T04:06:22;102499.09;;;5.25;87.75
70900;BME280;67902;52.154;5.430;2023-04-30T04:08:49;102494.59;;;5.26;87.79
70900;BME280;67902;52.154;5.430;2023-04-30T04:11:15;102493.75;;;5.25;88.33
70900;BME280;67902;52.154;5.430;2023-04-30T04:13:42;102497.13;;;5.28;88.30
70900;BME280;67902;52.154;5.430;2023-04-30T04:16:08;102490.38;;;5.32;88.74
70900;BME280;67902;52.154;5.430;2023-04-30T04:18:35;102494.41;;;5.36;88.49
70900;BME280;67902;52.154;5.430;2023-04-30T04:21:01;102485.53;;;5.19;87.39
70900;BME280;67902;52.154;5.430;2023-04-30T04:23:28;102491.22;;;5.00;87.49
70900;BME280;67902;52.154;5.430;2023-04-30T04:25:54;102494.91;;;4.83;88.13
70900;BME280;67902;52.154;5.430;2023-04-30T04:28:22;102491.38;;;4.82;88.31
70900;BME280;67902;52.154;5.430;2023-04-30T04:30:49;102488.19;;;4.87;88.38
70900;BME280;67902;52.154;5.430;2023-04-30T04:33:15;102488.72;;;4.90;88.69
70900;BME280;67902;52.154;5.430;2023-04-30T04:35:42;102489.88;;;4.96;88.41
70900;BME280;67902;52.154;5.430;2023-04-30T04:38:08;102495.25;;;5.04;88.90
70900;BME280;67902;52.154;5.430;2023-04-30T04:40:35;102490.88;;;5.11;89.18
70900;BME280;67902;52.154;5.430;2023-04-30T04:43:02;102491.06;;;5.17;88.69
70900;BME280;67902;52.154;5.430;2023-04-30T04:45:28;102496.75;;;5.22;88.18
70900;BME280;67902;52.154;5.430;2023-04-30T04:47:55;102497.44;;;5.24;88.43
70900;BME280;67902;52.154;5.430;2023-04-30T04:50:21;102502.63;;;5.34;88.69
70900;BME280;67902;52.154;5.430;2023-04-30T04:52:48;102501.97;;;5.40;88.69
70900;BME280;67902;52.154;5.430;2023-04-30T04:55:14;102501.31;;;5.38;88.00
70900;BME280;67902;52.154;5.430;2023-04-30T04:57:41;102502.13;;;5.31;87.97
70900;BME280;67902;52.154;5.430;2023-04-30T05:00:08;102499.09;;;5.25;87.87
70900;BME280;67902;52.154;5.430;2023-04-30T05:02:35;102508.00;;;5.26;88.36
70900;BME280;67902;52.154;5.430;2023-04-30T05:05:02;102501.63;;;5.35;88.79
70900;BME280;67902;52.154;5.430;2023-04-30T05:07:28;102492.91;;;5.41;88.79
70900;BME280;67902;52.154;5.430;2023-04-30T05:09:55;102485.81;;;5.56;89.08
70900;BME280;67902;52.154;5.430;2023-04-30T05:12:22;102479.09;;;5.60;89.33
70900;BME280;67902;52.154;5.430;2023-04-30T05:14:48;102489.81;;;5.76;89.35
70900;BME280;67902;52.154;5.430;2023-04-30T05:17:16;102496.88;;;5.86;89.60
70900;BME280;67902;52.154;5.430;2023-04-30T05:19:42;102496.81;;;6.02;89.56
70900;BME280;67902;52.154;5.430;2023-04-30T05:22:09;102501.13;;;6.19;89.50
70900;BME280;67902;52.154;5.430;2023-04-30T05:24:35;102497.38;;;6.28;89.35
70900;BME280;67902;52.154;5.430;2023-04-30T05:27:02;102500.28;;;6.49;89.54
70900;BME280;67902;52.154;5.430;2023-04-30T05:29:30;102498.41;;;6.58;89.59
70900;BME280;67902;52.154;5.430;2023-04-30T05:31:57;102505.00;;;6.78;89.44
70900;BME280;67902;52.154;5.430;2023-04-30T05:34:23;102496.16;;;6.92;88.91
70900;BME280;67902;52.154;5.430;2023-04-30T05:36:50;102509.97;;;7.12;88.77
70900;BME280;67902;52.154;5.430;2023-04-30T05:39:16;102508.53;;;7.24;88.16
70900;BME280;67902;52.154;5.430;2023-04-30T05:41:43;102508.75;;;7.37;88.37
70900;BME280;67902;52.154;5.430;2023-04-30T05:44:09;102512.34;;;7.67;88.55
70900;BME280;67902;52.154;5.430;2023-04-30T05:46:35;102516.28;;;8.08;87.45
70900;BME280;67902;52.154;5.430;2023-04-30T05:49:02;102516.25;;;8.52;86.13
70900;BME280;67902;52.154;5.430;2023-04-30T05:51:28;102516.31;;;9.15;84.19
70900;BME280;67902;52.154;5.430;2023-04-30T05:53:55;102530.03;;;9.63;82.86
70900;BME280;67902;52.154;5.430;2023-04-30T05:56:22;102525.03;;;10.22;83.91
70900;BME280;67902;52.154;5.430;2023-04-30T05:58:49;102531.00;;;10.45;78.88
70900;BME280;67902;52.154;5.430;2023-04-30T06:01:20;102528.25;;;10.86;77.95
70900;BME280;67902;52.154;5.430;2023-04-30T06:03:48;102526.97;;;10.82;76.64
70900;BME280;67902;52.154;5.430;2023-04-30T06:06:14;102530.94;;;10.92;76.53
70900;BME280;67902;52.154;5.430;2023-04-30T06:08:41;102530.97;;;10.99;76.82
70900;BME280;67902;52.154;5.430;2023-04-30T06:11:13;102521.41;;;11.16;75.27
70900;BME280;67902;52.154;5.430;2023-04-30T06:13:40;102528.72;;;11.48;75.31
70900;BME280;67902;52.154;5.430;2023-04-30T06:16:07;102533.34;;;11.81;72.33
70900;BME280;67902;52.154;5.430;2023-04-30T06:18:34;102529.75;;;12.06;72.26
70900;BME280;67902;52.154;5.430;2023-04-30T06:21:01;102536.63;;;11.96;72.66
70900;BME280;67902;52.154;5.430;2023-04-30T06:23:28;102545.84;;;11.88;71.57
70900;BME280;67902;52.154;5.430;2023-04-30T06:25:54;102541.19;;;12.21;71.55
70900;BME280;67902;52.154;5.430;2023-04-30T06:28:21;102539.00;;;12.50;70.29
70900;BME280;67902;52.154;5.430;2023-04-30T06:30:48;102532.59;;;12.82;69.00
70900;BME280;67902;52.154;5.430;2023-04-30T06:33:14;102541.50;;;12.96;68.99
70900;BME280;67902;52.154;5.430;2023-04-30T06:35:41;102539.06;;;12.81;68.09
70900;BME280;67902;52.154;5.430;2023-04-30T06:38:07;102538.03;;;12.82;68.66
70900;BME280;67902;52.154;5.430;2023-04-30T06:40:34;102533.06;;;12.66;68.04
70900;BME280;67902;52.154;5.430;2023-04-30T06:43:00;102536.44;;;12.61;67.42
70900;BME280;67902;52.154;5.430;2023-04-30T06:45:27;102531.50;;;12.52;68.47
70900;BME280;67902;52.154;5.430;2023-04-30T06:47:54;102536.84;;;12.71;67.21
70900;BME280;67902;52.154;5.430;2023-04-30T06:50:21;102534.97;;;13.03;66.74
70900;BME280;67902;52.154;5.430;2023-04-30T06:52:47;102535.31;;;13.20;66.65
70900;BME280;67902;52.154;5.430;2023-04-30T06:55:13;102534.28;;;13.46;67.62
70900;BME280;67902;52.154;5.430;2023-04-30T06:57:40;102535.13;;;13.15;67.90
70900;BME280;67902;52.154;5.430;2023-04-30T07:00:07;102536.00;;;12.71;67.61
70900;BME280;67902;52.154;5.430;2023-04-30T07:02:34;102540.69;;;12.89;68.09
70900;BME280;67902;52.154;5.430;2023-04-30T07:05:01;102537.06;;;13.08;66.63
70900;BME280;67902;52.154;5.430;2023-04-30T07:07:28;102536.66;;;12.98;66.72
70900;BME280;67902;52.154;5.430;2023-04-30T07:09:54;102537.63;;;12.78;68.16
70900;BME280;67902;52.154;5.430;2023-04-30T07:12:22;102542.94;;;12.98;68.11
70900;BME280;67902;52.154;5.430;2023-04-30T07:14:48;102543.97;;;13.10;66.67
70900;BME280;67902;52.154;5.430;2023-04-30T07:17:15;102535.13;;;13.15;65.56
70900;BME280;67902;52.154;5.430;2023-04-30T07:19:41;102554.72;;;13.30;65.03
70900;BME280;67902;52.154;5.430;2023-04-30T07:22:08;102541.00;;;13.43;64.63
70900;BME280;67902;52.154;5.430;2023-04-30T07:24:35;102541.59;;;13.70;64.70
70900;BME280;67902;52.154;5.430;2023-04-30T07:27:01;102549.88;;;13.81;64.61
70900;BME280;67902;52.154;5.430;2023-04-30T07:29:28;102553.59;;;13.87;62.96
70900;BME280;67902;52.154;5.430;2023-04-30T07:31:55;102552.50;;;13.94;63.44
70900;BME280;67902;52.154;5.430;2023-04-30T07:34:24;102549.63;;;14.08;63.27
70900;BME280;67902;52.154;5.430;2023-04-30T07:36:51;102546.75;;;14.21;62.98
70900;BME280;67902;52.154;5.430;2023-04-30T07:39:17;102546.25;;;14.30;64.32
70900;BME280;67902;52.154;5.430;2023-04-30T07:41:44;102552.00;;;14.59;60.91
70900;BME280;67902;52.154;5.430;2023-04-30T07:44:10;102541.69;;;14.79;60.47
70900;BME280;67902;52.154;5.430;2023-04-30T07:46:37;102551.38;;;15.04;58.97
70900;BME280;67902;52.154;5.430;2023-04-30T07:49:04;102543.31;;;15.39;58.56
70900;BME280;67902;52.154;5.430;2023-04-30T07:51:30;102540.28;;;15.59;58.75
70900;BME280;67902;52.154;5.430;2023-04-30T07:53:59;102544.22;;;15.63;57.09
70900;BME280;67902;52.154;5.430;2023-04-30T07:56:25;102540.06;;;15.31;58.15
70900;BME280;67902;52.154;5.430;2023-04-30T07:58:52;102534.09;;;15.10;59.35
70900;BME280;67902;52.154;5.430;2023-04-30T08:01:18;102535.22;;;15.21;60.06
70900;BME280;67902;52.154;5.430;2023-04-30T08:03:44;102536.97;;;15.16;59.36
70900;BME280;67902;52.154;5.430;2023-04-30T08:06:11;102533.81;;;15.00;59.49
70900;BME280;67902;52.154;5.430;2023-04-30T08:08:38;102532.59;;;14.96;58.14
70900;BME280;67902;52.154;5.430;2023-04-30T08:11:04;102533.38;;;15.03;58.23
70900;BME280;67902;52.154;5.430;2023-04-30T08:13:31;102534.63;;;14.89;59.33
70900;BME280;67902;52.154;5.430;2023-04-30T08:15:57;102534.53;;;15.07;60.47
70900;BME280;67902;52.154;5.430;2023-04-30T08:18:23;102533.28;;;15.10;59.09
70900;BME280;67902;52.154;5.430;2023-04-30T08:20:50;102537.94;;;15.21;58.37
70900;BME280;67902;52.154;5.430;2023-04-30T08:23:16;102533.97;;;15.47;56.79
70900;BME280;67902;52.154;5.430;2023-04-30T08:25:43;102528.53;;;15.70;56.72
70900;BME280;67902;52.154;5.430;2023-04-30T08:28:09;102535.19;;;15.97;55.63
70900;BME280;67902;52.154;5.430;2023-04-30T08:30:35;102534.28;;;16.43;55.45
70900;BME280;67902;52.154;5.430;2023-04-30T08:33:02;102532.59;;;16.94;53.82
70900;BME280;67902;52.154;5.430;2023-04-30T08:35:28;102536.91;;;17.34;54.69
70900;BME280;67902;52.154;5.430;2023-04-30T08:37:55;102543.72;;;17.49;51.22
70900;BME280;67902;52.154;5.430;2023-04-30T08:40:21;102532.41;;;17.57;51.29
70900;BME280;67902;52.154;5.430;2023-04-30T08:43:06;102531.34;;;17.46;51.59
70900;BME280;67902;52.154;5.430;2023-04-30T08:45:33;102535.66;;;17.25;52.64
70900;BME280;67902;52.154;5.430;2023-04-30T08:48:00;102529.94;;;17.44;53.59
70900;BME280;67902;52.154;5.430;2023-04-30T08:50:27;102531.09;;;17.98;54.21
70900;BME280;67902;52.154;5.430;2023-04-30T08:52:53;102527.91;;;18.44;49.58
70900;BME280;67902;52.154;5.430;2023-04-30T08:55:20;102522.66;;;18.42;50.73
70900;BME280;67902;52.154;5.430;2023-04-30T08:57:46;102524.44;;;18.32;50.21
70900;BME280;67902;52.154;5.430;2023-04-30T09:00:13;102529.69;;;18.77;47.97
70900;BME280;67902;52.154;5.430;2023-04-30T09:02:40;102524.56;;;18.85;49.43
70900;BME280;67902;52.154;5.430;2023-04-30T09:05:10;102532.94;;;18.74;48.10
70900;BME280;67902;52.154;5.430;2023-04-30T09:07:42;102530.47;;;18.50;51.89
70900;BME280;67902;52.154;5.430;2023-04-30T09:10:21;102517.56;;;18.73;47.55
70900;BME280;67902;52.154;5.430;2023-04-30T09:12:58;102528.03;;;18.32;48.41
70900;BME280;67902;52.154;5.430;2023-04-30T09:15:25;102525.75;;;18.68;47.45
70900;BME280;67902;52.154;5.430;2023-04-30T09:18:14;102525.56;;;19.01;50.92
70900;BME280;67902;52.154;5.430;2023-04-30T09:20:57;102514.22;;;19.51;49.22
70900;BME280;67902;52.154;5.430;2023-04-30T09:23:24;102519.50;;;19.57;44.91
70900;BME280;67902;52.154;5.430;2023-04-30T09:25:50;102511.13;;;19.79;44.81
70900;BME280;67902;52.154;5.430;2023-04-30T09:28:17;102507.75;;;20.04;44.15
70900;BME280;67902;52.154;5.430;2023-04-30T09:30:43;102507.56;;;20.20;42.10
70900;BME280;67902;52.154;5.430;2023-04-30T09:33:10;102496.31;;;20.27;42.05
70900;BME280;67902;52.154;5.430;2023-04-30T09:35:38;102494.50;;;20.53;45.59
70900;BME280;67902;52.154;5.430;2023-04-30T09:38:05;102499.13;;;20.42;45.02
70900;BME280;67902;52.154;5.430;2023-04-30T09:40:39;102497.56;;;20.66;43.23
70900;BME280;67902;52.154;5.430;2023-04-30T09:43:07;102499.50;;;20.71;42.76
70900;BME280;67902;52.154;5.430;2023-04-30T09:45:46;102494.75;;;20.46;44.50
70900;BME280;67902;52.154;5.430;2023-04-30T09:48:14;102500.53;;;20.55;46.76
70900;BME280;67902;52.154;5.430;2023-04-30T09:50:43;102499.97;;;20.43;42.75
70900;BME280;67902;52.154;5.430;2023-04-30T09:53:12;102495.31;;;20.43;42.52
70900;BME280;67902;52.154;5.430;2023-04-30T09:55:46;102490.94;;;20.57;42.71
70900;BME280;67902;52.154;5.430;2023-04-30T09:58:14;102490.97;;;20.77;43.23
70900;BME280;67902;52.154;5.430;2023-04-30T10:00:44;102493.72;;;20.67;42.65
70900;BME280;67902;52.154;5.430;2023-04-30T10:03:13;102487.06;;;20.48;41.33
70900;BME280;67902;52.154;5.430;2023-04-30T10:05:44;102477.25;;;20.83;44.58
70900;BME280;67902;52.154;5.430;2023-04-30T10:08:21;102483.34;;;21.05;42.78
70900;BME280;67902;52.154;5.430;2023-04-30T10:10:57;102485.56;;;21.38;39.71
70900;BME280;67902;52.154;5.430;2023-04-30T10:13:28;102474.00;;;21.11;42.84
70900;BME280;67902;52.154;5.430;2023-04-30T10:15:59;102470.97;;;21.53;42.80
70900;BME280;67902;52.154;5.430;2023-04-30T10:18:38;102468.16;;;21.73;43.82
70900;BME280;67902;52.154;5.430;2023-04-30T10:21:06;102473.16;;;21.51;40.16
70900;BME280;67902;52.154;5.430;2023-04-30T10:23:38;102463.44;;;21.78;40.65
70900;BME280;67902;52.154;5.430;2023-04-30T10:26:05;102462.31;;;22.05;42.15
70900;BME280;67902;52.154;5.430;2023-04-30T10:28:31;102463.63;;;22.22;42.53
70900;BME280;67902;52.154;5.430;2023-04-30T10:30:58;102465.63;;;22.02;37.55
70900;BME280;67902;52.154;5.430;2023-04-30T10:33:25;102463.16;;;21.90;41.44
70900;BME280;67902;52.154;5.430;2023-04-30T10:35:59;102459.19;;;22.26;43.81
70900;BME280;67902;52.154;5.430;2023-04-30T10:38:28;102459.53;;;22.10;38.63
70900;BME280;67902;52.154;5.430;2023-04-30T10:40:57;102453.91;;;22.30;38.95
70900;BME280;67902;52.154;5.430;2023-04-30T10:43:25;102448.41;;;22.84;39.80
70900;BME280;67902;52.154;5.430;2023-04-30T10:45:52;102450.66;;;23.16;40.45
70900;BME280;67902;52.154;5.430;2023-04-30T10:48:22;102446.47;;;22.79;40.12
70900;BME280;67902;52.154;5.430;2023-04-30T10:50:56;102451.13;;;22.35;38.91
70900;BME280;67902;52.154;5.430;2023-04-30T10:53:23;102448.88;;;22.47;39.84
70900;BME280;67902;52.154;5.430;2023-04-30T10:56:03;102437.69;;;22.72;40.12
70900;BME280;67902;52.154;5.430;2023-04-30T11:01:06;102433.72;;;23.22;38.55
70900;BME280;67902;52.154;5.430;2023-04-30T11:03:34;102425.50;;;22.78;37.96
70900;BME280;67902;52.154;5.430;2023-04-30T11:06:10;102434.66;;;23.07;39.20
70900;BME280;67902;52.154;5.430;2023-04-30T11:08:38;102416.09;;;22.79;38.55
70900;BME280;67902;52.154;5.430;2023-04-30T11:11:07;102418.41;;;22.62;36.96
70900;BME280;67902;52.154;5.430;2023-04-30T11:13:43;102419.47;;;22.71;38.02
70900;BME280;67902;52.154;5.430;2023-04-30T11:16:10;102418.66;;;22.71;40.12
70900;BME280;67902;52.154;5.430;2023-04-30T11:18:46;102412.44;;;22.89;39.33
70900;BME280;67902;52.154;5.430;2023-04-30T11:21:12;102411.22;;;23.34;37.83
70900;BME280;67902;52.154;5.430;2023-04-30T11:23:48;102404.31;;;23.31;38.44
70900;BME280;67902;52.154;5.430;2023-04-30T11:26:14;102396.53;;;23.09;37.19
70900;BME280;67902;52.154;5.430;2023-04-30T11:28:49;102394.34;;;23.35;39.27
70900;BME280;67902;52.154;5.430;2023-04-30T11:31:17;102389.72;;;23.26;39.50
70900;BME280;67902;52.154;5.430;2023-04-30T11:33:43;102384.97;;;23.31;39.45
70900;BME280;67902;52.154;5.430;2023-04-30T11:36:13;102378.38;;;23.56;42.31
70900;BME280;67902;52.154;5.430;2023-04-30T11:38:40;102378.22;;;23.14;37.00
70900;BME280;67902;52.154;5.430;2023-04-30T11:41:06;102380.41;;;23.17;38.65
70900;BME280;67902;52.154;5.430;2023-04-30T11:43:33;102381.72;;;23.53;40.59
70900;BME280;67902;52.154;5.430;2023-04-30T11:46:14;102375.38;;;23.76;37.07
70900;BME280;67902;52.154;5.430;2023-04-30T11:48:44;102373.91;;;23.60;38.61
70900;BME280;67902;52.154;5.430;2023-04-30T11:51:17;102365.53;;;24.12;35.88
70900;BME280;67902;52.154;5.430;2023-04-30T11:53:45;102358.72;;;24.42;39.39
70900;BME280;67902;52.154;5.430;2023-04-30T11:56:13;102364.41;;;24.13;36.36
70900;BME280;67902;52.154;5.430;2023-04-30T11:58:39;102363.53;;;23.94;34.84
70900;BME280;67902;52.154;5.430;2023-04-30T12:01:07;102358.88;;;24.13;37.50
70900;BME280;67902;52.154;5.430;2023-04-30T12:03:45;102356.47;;;24.63;40.79
70900;BME280;67902;52.154;5.430;2023-04-30T12:06:26;102347.28;;;25.13;35.03
70900;BME280;67902;52.154;5.430;2023-04-30T12:08:54;102353.34;;;25.15;33.35
70900;BME280;67902;52.154;5.430;2023-04-30T12:11:22;102344.06;;;24.74;34.11
70900;BME280;67902;52.154;5.430;2023-04-30T12:13:55;102345.75;;;24.56;35.73
70900;BME280;67902;52.154;5.430;2023-04-30T12:16:28;102343.59;;;24.53;38.31
70900;BME280;67902;52.154;5.430;2023-04-30T12:18:54;102341.53;;;25.10;33.18
70900;BME280;67902;52.154;5.430;2023-04-30T12:21:21;102337.00;;;25.00;35.04
70900;BME280;67902;52.154;5.430;2023-04-30T12:23:48;102340.88;;;24.86;40.21
70900;BME280;67902;52.154;5.430;2023-04-30T12:26:14;102339.47;;;25.02;35.86
70900;BME280;67902;52.154;5.430;2023-04-30T12:28:41;102332.59;;;25.13;33.75
70900;BME280;67902;52.154;5.430;2023-04-30T12:31:07;102337.44;;;25.07;34.14
70900;BME280;67902;52.154;5.430;2023-04-30T12:33:34;102332.38;;;25.55;34.50
70900;BME280;67902;52.154;5.430;2023-04-30T12:36:02;102326.81;;;25.69;34.51
70900;BME280;67902;52.154;5.430;2023-04-30T12:38:28;102325.69;;;25.70;33.20
70900;BME280;67902;52.154;5.430;2023-04-30T12:40:55;102326.75;;;25.01;35.74
70900;BME280;67902;52.154;5.430;2023-04-30T12:43:21;102320.16;;;24.97;34.76
70900;BME280;67902;52.154;5.430;2023-04-30T12:45:54;102317.97;;;23.87;35.41
70900;BME280;67902;52.154;5.430;2023-04-30T12:48:23;102319.34;;;22.89;37.96
70900;BME280;67902;52.154;5.430;2023-04-30T12:51:00;102325.53;;;22.76;39.21
70900;BME280;67902;52.154;5.430;2023-04-30T12:53:28;102318.00;;;23.39;37.44
70900;BME280;67902;52.154;5.430;2023-04-30T12:56:08;102307.44;;;24.07;35.97
70900;BME280;67902;52.154;5.430;2023-04-30T12:58:38;102312.59;;;24.51;31.63
70900;BME280;67902;52.154;5.430;2023-04-30T13:01:09;102307.97;;;24.98;33.02
70900;BME280;67902;52.154;5.430;2023-04-30T13:03:36;102307.25;;;25.19;32.39
70900;BME280;67902;52.154;5.430;2023-04-30T13:06:03;102298.94;;;25.33;31.00
70900;BME280;67902;52.154;5.430;2023-04-30T13:08:32;102289.78;;;25.46;31.51
70900;BME280;67902;52.154;5.430;2023-04-30T13:11:11;102284.56;;;25.72;32.55
70900;BME280;67902;52.154;5.430;2023-04-30T13:13:37;102290.06;;;25.99;32.22
70900;BME280;67902;52.154;5.430;2023-04-30T13:16:04;102272.66;;;26.07;30.93
70900;BME280;67902;52.154;5.430;2023-04-30T13:18:32;102280.38;;;26.10;28.90
70900;BME280;67902;52.154;5.430;2023-04-30T13:20:58;102268.69;;;26.35;31.91